Metar z pełnej godziny Komunikat METAR ze strony awiacja.imgw.pl Metar G00 EPWA METAR EPWA 231300Z 18007KT 150V210 CAVOK 21/06 Q1011 NOSIG=